Kamikawa Maru — JG5687 — position and weather

sailwx.info

Track history (hours):
 
Tides and Currents Weather Stations Pressure Air Temp Water Temp Dewpoint Dewpoint Depression Visibility Wind Speed Wind Dir Waves Ship Positions

Kamikawa Maru

Last reported at 2014-Oct-28 11:27 UTC. Time now 2014-Oct-31 19:18 UTC.
Position N 35°03' E 139°44'.

Length 162 m; draft 6.8 m.

Type: Cargo ship. MMSI: 431101012.

Date/timePositionNaut miles runAvg speedWind from/ knotsBaromVisibWave heightAir tempDewpointWater temp
2014-Oct-28 11:27N 35°03' E 139°44'1416.1
2014-Oct-28 10:33N 35°17' E 139°45'1413.9
2014-Oct-28 09:33N 35°30' E 139°51'9 0.9
2014-Oct-27 23:33N 35°38' E 139°46'9 8.6
2014-Oct-27 22:33N 35°32' E 139°53'0 0.0
2014-Oct-27 20:33N 35°32' E 139°53'1211.8
2014-Oct-27 19:33N 35°22' E 139°45'1312.9
2014-Oct-27 18:33N 35°10' E 139°46'11 0.3
2014-Oct-26 06:28N 35°03' E 139°36'1517.0
2014-Oct-26 05:34N 35°15' E 139°46'1313.2
2014-Oct-26 04:34N 35°28' E 139°49'10 2.0
2014-Oct-25 23:33N 35°38' E 139°46'1110.7
2014-Oct-25 22:34N 35°28' E 139°51'1212.2
2014-Oct-25 21:34N 35°17' E 139°46'1414.1
2014-Oct-25 20:34N 35°03' E 139°45'  
2014-Oct-20 11:33N 35°05' E 139°39'1413.8
2014-Oct-20 10:33N 35°18' E 139°44'1313.1
2014-Oct-20 09:33N 35°30' E 139°51'9 4.5
2014-Oct-20 07:32N 35°38' E 139°46'0 0.0
2014-Oct-19 23:08N 35°38' E 139°46'0 0.1
2014-Oct-19 22:26N 35°38' E 139°46'6 6.6
2014-Oct-19 21:33N 35°33' E 139°50'1413.6
2014-Oct-19 20:34N 35°21' E 139°45'1312.7
2014-Oct-19 19:33N 35°08' E 139°47'  
Track history (hours):
 
Tides and Currents Weather Stations Pressure Air Temp Water Temp Dewpoint Dewpoint Depression Visibility Wind Speed Wind Dir Waves Ship Positions

Kamikawa Maru

Last reported at 2014-Oct-28 11:27 UTC. Time now 2014-Oct-31 19:18 UTC.
Position N 35°03' E 139°44'.

Length 162 m; draft 6.8 m.

Type: Cargo ship. MMSI: 431101012.

Date/timePositionNaut miles runAvg speedWind from/ knotsBaromVisibWave heightAir tempDewpointWater temp
2014-Oct-28 11:27N 35°03' E 139°44'1416.1
2014-Oct-28 10:33N 35°17' E 139°45'1413.9
2014-Oct-28 09:33N 35°30' E 139°51'9 0.9
2014-Oct-27 23:33N 35°38' E 139°46'9 8.6
2014-Oct-27 22:33N 35°32' E 139°53'0 0.0
2014-Oct-27 20:33N 35°32' E 139°53'1211.8
2014-Oct-27 19:33N 35°22' E 139°45'1312.9
2014-Oct-27 18:33N 35°10' E 139°46'11 0.3
2014-Oct-26 06:28N 35°03' E 139°36'1517.0
2014-Oct-26 05:34N 35°15' E 139°46'1313.2
2014-Oct-26 04:34N 35°28' E 139°49'10 2.0
2014-Oct-25 23:33N 35°38' E 139°46'1110.7
2014-Oct-25 22:34N 35°28' E 139°51'1212.2
2014-Oct-25 21:34N 35°17' E 139°46'1414.1
2014-Oct-25 20:34N 35°03' E 139°45'  
2014-Oct-20 11:33N 35°05' E 139°39'1413.8
2014-Oct-20 10:33N 35°18' E 139°44'1313.1
2014-Oct-20 09:33N 35°30' E 139°51'9 4.5
2014-Oct-20 07:32N 35°38' E 139°46'0 0.0
2014-Oct-19 23:08N 35°38' E 139°46'0 0.1
2014-Oct-19 22:26N 35°38' E 139°46'6 6.6
2014-Oct-19 21:33N 35°33' E 139°50'1413.6
2014-Oct-19 20:34N 35°21' E 139°45'1312.7
2014-Oct-19 19:33N 35°08' E 139°47'  

Dump ship's entire track history